sensor_id;sensor_type;location;lat;lon;timestamp;pressure;altitude;pressure_sealevel;temperature;humidity
56992;BME280;42885;49.754;18.636;2022-11-10T00:01:11;98499.59;;;8.79;100.00
56992;BME280;42885;49.754;18.636;2022-11-10T00:03:59;98503.65;;;8.67;100.00
56992;BME280;42885;49.754;18.636;2022-11-10T00:06:48;98515.33;;;8.69;100.00
56992;BME280;42885;49.754;18.636;2022-11-10T00:09:36;98517.25;;;8.83;100.00
56992;BME280;42885;49.754;18.636;2022-11-10T00:12:26;98507.59;;;8.94;100.00
56992;BME280;42885;49.754;18.636;2022-11-10T00:15:17;98499.67;;;9.04;100.00
56992;BME280;42885;49.754;18.636;2022-11-10T00:18:23;98503.11;;;9.14;100.00
56992;BME280;42885;49.754;18.636;2022-11-10T00:21:13;98498.07;;;8.93;100.00
56992;BME280;42885;49.754;18.636;2022-11-10T00:24:02;98494.67;;;8.91;100.00
56992;BME280;42885;49.754;18.636;2022-11-10T00:26:50;98496.44;;;8.81;100.00
56992;BME280;42885;49.754;18.636;2022-11-10T00:29:40;98492.44;;;8.92;100.00
56992;BME280;42885;49.754;18.636;2022-11-10T00:32:28;98492.88;;;9.35;100.00
56992;BME280;42885;49.754;18.636;2022-11-10T00:35:17;98501.65;;;9.34;100.00
56992;BME280;42885;49.754;18.636;2022-11-10T00:38:06;98505.22;;;9.49;100.00
56992;BME280;42885;49.754;18.636;2022-11-10T00:40:56;98506.45;;;9.51;100.00
56992;BME280;42885;49.754;18.636;2022-11-10T00:43:44;98510.24;;;9.36;100.00
56992;BME280;42885;49.754;18.636;2022-11-10T00:46:33;98510.17;;;9.20;100.00
56992;BME280;42885;49.754;18.636;2022-11-10T00:49:22;98510.05;;;8.88;100.00
56992;BME280;42885;49.754;18.636;2022-11-10T00:52:10;98518.48;;;8.85;100.00
56992;BME280;42885;49.754;18.636;2022-11-10T00:54:59;98519.84;;;8.92;100.00
56992;BME280;42885;49.754;18.636;2022-11-10T00:57:49;98512.48;;;8.74;100.00
56992;BME280;42885;49.754;18.636;2022-11-10T01:00:37;98523.28;;;8.66;100.00
56992;BME280;42885;49.754;18.636;2022-11-10T01:03:26;98524.30;;;8.72;100.00
56992;BME280;42885;49.754;18.636;2022-11-10T01:06:15;98522.23;;;8.70;100.00
56992;BME280;42885;49.754;18.636;2022-11-10T01:09:06;98536.69;;;8.95;100.00
56992;BME280;42885;49.754;18.636;2022-11-10T01:11:54;98537.83;;;9.25;100.00
56992;BME280;42885;49.754;18.636;2022-11-10T01:14:46;98548.09;;;9.45;100.00
56992;BME280;42885;49.754;18.636;2022-11-10T01:17:35;98550.81;;;9.00;100.00
56992;BME280;42885;49.754;18.636;2022-11-10T01:20:24;98553.04;;;8.99;100.00
56992;BME280;42885;49.754;18.636;2022-11-10T01:23:13;98554.64;;;9.10;100.00
56992;BME280;42885;49.754;18.636;2022-11-10T01:26:04;98551.88;;;8.87;100.00
56992;BME280;42885;49.754;18.636;2022-11-10T01:28:54;98546.13;;;9.15;100.00
56992;BME280;42885;49.754;18.636;2022-11-10T01:31:44;98547.05;;;9.32;100.00
56992;BME280;42885;49.754;18.636;2022-11-10T01:34:33;98549.48;;;9.08;100.00
56992;BME280;42885;49.754;18.636;2022-11-10T01:37:22;98547.14;;;9.21;100.00
56992;BME280;42885;49.754;18.636;2022-11-10T01:40:11;98540.42;;;9.42;100.00
56992;BME280;42885;49.754;18.636;2022-11-10T01:42:59;98543.17;;;9.48;100.00
56992;BME280;42885;49.754;18.636;2022-11-10T01:45:52;98550.02;;;9.42;100.00
56992;BME280;42885;49.754;18.636;2022-11-10T01:48:49;98544.41;;;9.49;100.00
56992;BME280;42885;49.754;18.636;2022-11-10T01:51:50;98540.66;;;9.38;100.00
56992;BME280;42885;49.754;18.636;2022-11-10T01:54:41;98538.50;;;9.46;100.00
56992;BME280;42885;49.754;18.636;2022-11-10T01:57:30;98537.70;;;9.61;100.00
56992;BME280;42885;49.754;18.636;2022-11-10T02:00:19;98540.52;;;9.66;100.00
56992;BME280;42885;49.754;18.636;2022-11-10T02:06:10;98537.34;;;9.85;100.00
56992;BME280;42885;49.754;18.636;2022-11-10T02:08:59;98540.27;;;10.04;100.00
56992;BME280;42885;49.754;18.636;2022-11-10T02:11:50;98532.84;;;10.12;100.00
56992;BME280;42885;49.754;18.636;2022-11-10T02:14:39;98533.30;;;9.71;100.00
56992;BME280;42885;49.754;18.636;2022-11-10T02:17:28;98540.70;;;9.87;100.00
56992;BME280;42885;49.754;18.636;2022-11-10T02:20:19;98546.91;;;9.69;100.00
56992;BME280;42885;49.754;18.636;2022-11-10T02:26:25;98538.79;;;9.82;100.00
56992;BME280;42885;49.754;18.636;2022-11-10T02:29:15;98544.19;;;9.79;100.00
56992;BME280;42885;49.754;18.636;2022-11-10T02:32:04;98554.24;;;9.53;100.00
56992;BME280;42885;49.754;18.636;2022-11-10T02:34:52;98552.47;;;8.92;100.00
56992;BME280;42885;49.754;18.636;2022-11-10T02:37:41;98559.11;;;9.08;100.00
56992;BME280;42885;49.754;18.636;2022-11-10T02:40:29;98568.39;;;8.96;100.00
56992;BME280;42885;49.754;18.636;2022-11-10T02:43:19;98572.23;;;8.98;100.00
56992;BME280;42885;49.754;18.636;2022-11-10T02:46:07;98574.06;;;8.87;100.00
56992;BME280;42885;49.754;18.636;2022-11-10T02:48:56;98572.23;;;9.06;100.00
56992;BME280;42885;49.754;18.636;2022-11-10T02:51:45;98574.39;;;9.07;100.00
56992;BME280;42885;49.754;18.636;2022-11-10T02:54:34;98580.98;;;9.05;100.00
56992;BME280;42885;49.754;18.636;2022-11-10T02:57:23;98592.44;;;9.12;100.00
56992;BME280;42885;49.754;18.636;2022-11-10T03:00:12;98597.77;;;8.91;100.00
56992;BME280;42885;49.754;18.636;2022-11-10T03:03:01;98597.30;;;8.83;100.00
56992;BME280;42885;49.754;18.636;2022-11-10T03:05:49;98598.37;;;8.78;100.00
56992;BME280;42885;49.754;18.636;2022-11-10T03:08:38;98595.95;;;8.93;100.00
56992;BME280;42885;49.754;18.636;2022-11-10T03:11:27;98602.95;;;9.01;100.00
56992;BME280;42885;49.754;18.636;2022-11-10T03:14:16;98605.09;;;8.93;100.00
56992;BME280;42885;49.754;18.636;2022-11-10T03:17:05;98596.91;;;8.81;100.00
56992;BME280;42885;49.754;18.636;2022-11-10T03:19:54;98599.36;;;8.76;100.00
56992;BME280;42885;49.754;18.636;2022-11-10T03:22:44;98597.74;;;8.73;100.00
56992;BME280;42885;49.754;18.636;2022-11-10T03:25:33;98593.02;;;8.99;100.00
56992;BME280;42885;49.754;18.636;2022-11-10T03:28:22;98593.96;;;9.16;100.00
56992;BME280;42885;49.754;18.636;2022-11-10T03:31:11;98593.28;;;9.21;100.00
56992;BME280;42885;49.754;18.636;2022-11-10T03:33:59;98590.36;;;9.18;100.00
56992;BME280;42885;49.754;18.636;2022-11-10T03:36:48;98594.42;;;9.06;100.00
56992;BME280;42885;49.754;18.636;2022-11-10T03:39:37;98589.95;;;9.08;100.00
56992;BME280;42885;49.754;18.636;2022-11-10T03:42:26;98584.31;;;9.18;100.00
56992;BME280;42885;49.754;18.636;2022-11-10T03:45:15;98595.75;;;9.33;100.00
56992;BME280;42885;49.754;18.636;2022-11-10T03:48:04;98598.34;;;9.24;100.00
56992;BME280;42885;49.754;18.636;2022-11-10T03:50:52;98604.78;;;9.17;100.00
56992;BME280;42885;49.754;18.636;2022-11-10T03:53:41;98605.72;;;9.07;100.00
56992;BME280;42885;49.754;18.636;2022-11-10T03:56:30;98608.39;;;9.05;100.00
56992;BME280;42885;49.754;18.636;2022-11-10T03:59:18;98609.32;;;9.04;100.00
56992;BME280;42885;49.754;18.636;2022-11-10T04:02:07;98601.95;;;9.13;100.00
56992;BME280;42885;49.754;18.636;2022-11-10T04:04:56;98615.77;;;9.15;100.00
56992;BME280;42885;49.754;18.636;2022-11-10T04:08:02;98621.56;;;9.21;100.00
56992;BME280;42885;49.754;18.636;2022-11-10T04:11:09;98620.78;;;9.11;100.00
56992;BME280;42885;49.754;18.636;2022-11-10T04:13:58;98623.61;;;9.15;100.00
56992;BME280;42885;49.754;18.636;2022-11-10T04:17:05;98625.48;;;9.21;100.00
56992;BME280;42885;49.754;18.636;2022-11-10T04:19:54;98632.39;;;9.40;100.00
56992;BME280;42885;49.754;18.636;2022-11-10T04:22:43;98634.14;;;9.57;100.00
56992;BME280;42885;49.754;18.636;2022-11-10T04:25:52;98629.76;;;9.84;100.00
56992;BME280;42885;49.754;18.636;2022-11-10T04:29:02;98635.50;;;9.82;100.00
56992;BME280;42885;49.754;18.636;2022-11-10T04:31:51;98641.42;;;9.86;100.00
56992;BME280;42885;49.754;18.636;2022-11-10T04:34:40;98640.36;;;9.81;100.00
56992;BME280;42885;49.754;18.636;2022-11-10T04:37:28;98645.41;;;9.93;100.00
56992;BME280;42885;49.754;18.636;2022-11-10T04:40:17;98639.80;;;9.92;100.00
56992;BME280;42885;49.754;18.636;2022-11-10T04:43:06;98638.33;;;9.95;100.00
56992;BME280;42885;49.754;18.636;2022-11-10T04:45:55;98636.27;;;9.93;100.00
56992;BME280;42885;49.754;18.636;2022-11-10T04:48:44;98645.55;;;9.99;100.00
56992;BME280;42885;49.754;18.636;2022-11-10T04:51:37;98649.09;;;10.07;100.00
56992;BME280;42885;49.754;18.636;2022-11-10T04:54:26;98653.14;;;10.21;100.00
56992;BME280;42885;49.754;18.636;2022-11-10T04:57:15;98664.75;;;10.15;100.00
56992;BME280;42885;49.754;18.636;2022-11-10T05:00:05;98667.12;;;10.20;100.00
56992;BME280;42885;49.754;18.636;2022-11-10T05:02:54;98682.61;;;10.16;100.00
56992;BME280;42885;49.754;18.636;2022-11-10T05:05:42;98684.56;;;10.28;100.00
56992;BME280;42885;49.754;18.636;2022-11-10T05:08:31;98681.87;;;10.30;100.00
56992;BME280;42885;49.754;18.636;2022-11-10T05:11:20;98689.80;;;10.46;100.00
56992;BME280;42885;49.754;18.636;2022-11-10T05:14:08;98693.66;;;10.80;100.00
56992;BME280;42885;49.754;18.636;2022-11-10T05:16:57;98701.07;;;10.80;100.00
56992;BME280;42885;49.754;18.636;2022-11-10T05:19:46;98704.52;;;10.81;100.00
56992;BME280;42885;49.754;18.636;2022-11-10T05:22:34;98703.06;;;10.84;100.00
56992;BME280;42885;49.754;18.636;2022-11-10T05:25:23;98702.92;;;10.94;100.00
56992;BME280;42885;49.754;18.636;2022-11-10T05:28:12;98705.50;;;10.87;100.00
56992;BME280;42885;49.754;18.636;2022-11-10T05:31:03;98712.22;;;10.84;100.00
56992;BME280;42885;49.754;18.636;2022-11-10T05:33:51;98712.28;;;10.98;100.00
56992;BME280;42885;49.754;18.636;2022-11-10T05:36:41;98721.00;;;10.99;100.00
56992;BME280;42885;49.754;18.636;2022-11-10T05:39:29;98720.49;;;11.08;100.00
56992;BME280;42885;49.754;18.636;2022-11-10T05:42:18;98723.06;;;11.01;100.00
56992;BME280;42885;49.754;18.636;2022-11-10T05:45:07;98730.53;;;11.16;100.00
56992;BME280;42885;49.754;18.636;2022-11-10T05:47:56;98725.47;;;11.13;100.00
56992;BME280;42885;49.754;18.636;2022-11-10T05:50:45;98741.40;;;11.01;100.00
56992;BME280;42885;49.754;18.636;2022-11-10T05:53:33;98741.05;;;10.91;100.00
56992;BME280;42885;49.754;18.636;2022-11-10T05:56:22;98742.78;;;10.83;100.00
56992;BME280;42885;49.754;18.636;2022-11-10T05:59:11;98749.58;;;10.79;100.00
56992;BME280;42885;49.754;18.636;2022-11-10T06:02:00;98751.36;;;11.10;100.00
56992;BME280;42885;49.754;18.636;2022-11-10T06:04:49;98750.06;;;10.94;100.00
56992;BME280;42885;49.754;18.636;2022-11-10T06:07:38;98756.28;;;11.00;100.00
56992;BME280;42885;49.754;18.636;2022-11-10T06:10:27;98763.55;;;10.86;100.00
56992;BME280;42885;49.754;18.636;2022-11-10T06:13:16;98764.53;;;10.77;100.00
56992;BME280;42885;49.754;18.636;2022-11-10T06:16:05;98772.59;;;10.81;100.00
56992;BME280;42885;49.754;18.636;2022-11-10T06:18:54;98776.02;;;10.90;100.00
56992;BME280;42885;49.754;18.636;2022-11-10T06:21:42;98781.05;;;10.86;100.00
56992;BME280;42885;49.754;18.636;2022-11-10T06:24:31;98781.79;;;11.13;100.00
56992;BME280;42885;49.754;18.636;2022-11-10T06:27:20;98779.98;;;11.06;100.00
56992;BME280;42885;49.754;18.636;2022-11-10T06:30:10;98785.47;;;11.01;100.00
56992;BME280;42885;49.754;18.636;2022-11-10T06:32:59;98783.78;;;11.17;100.00
56992;BME280;42885;49.754;18.636;2022-11-10T06:35:47;98786.40;;;11.17;100.00
56992;BME280;42885;49.754;18.636;2022-11-10T06:38:36;98790.88;;;11.31;100.00
56992;BME280;42885;49.754;18.636;2022-11-10T06:41:25;98796.75;;;11.27;100.00
56992;BME280;42885;49.754;18.636;2022-11-10T06:44:14;98799.90;;;11.34;100.00
56992;BME280;42885;49.754;18.636;2022-11-10T06:47:02;98801.20;;;11.34;100.00
56992;BME280;42885;49.754;18.636;2022-11-10T06:49:50;98804.61;;;11.27;100.00
56992;BME280;42885;49.754;18.636;2022-11-10T06:52:39;98809.45;;;11.35;100.00
56992;BME280;42885;49.754;18.636;2022-11-10T06:55:28;98811.33;;;11.40;100.00
56992;BME280;42885;49.754;18.636;2022-11-10T06:58:17;98807.62;;;11.44;100.00
56992;BME280;42885;49.754;18.636;2022-11-10T07:01:06;98815.48;;;11.44;100.00
56992;BME280;42885;49.754;18.636;2022-11-10T07:03:55;98824.28;;;11.43;100.00
56992;BME280;42885;49.754;18.636;2022-11-10T07:06:45;98827.36;;;11.26;100.00
56992;BME280;42885;49.754;18.636;2022-11-10T07:09:34;98836.41;;;11.37;100.00
56992;BME280;42885;49.754;18.636;2022-11-10T07:12:23;98834.53;;;11.39;100.00
56992;BME280;42885;49.754;18.636;2022-11-10T07:15:12;98838.14;;;11.45;100.00
56992;BME280;42885;49.754;18.636;2022-11-10T07:18:03;98839.58;;;11.67;100.00
56992;BME280;42885;49.754;18.636;2022-11-10T07:20:52;98840.60;;;11.88;100.00
56992;BME280;42885;49.754;18.636;2022-11-10T07:23:40;98850.49;;;11.82;100.00
56992;BME280;42885;49.754;18.636;2022-11-10T07:26:29;98850.44;;;12.07;100.00
56992;BME280;42885;49.754;18.636;2022-11-10T07:29:17;98863.87;;;11.94;100.00
56992;BME280;42885;49.754;18.636;2022-11-10T07:32:06;98872.97;;;11.95;100.00
56992;BME280;42885;49.754;18.636;2022-11-10T07:34:56;98872.59;;;11.78;100.00
56992;BME280;42885;49.754;18.636;2022-11-10T07:37:45;98871.36;;;11.93;100.00
56992;BME280;42885;49.754;18.636;2022-11-10T07:40:35;98874.28;;;11.95;100.00
56992;BME280;42885;49.754;18.636;2022-11-10T07:43:24;98877.98;;;12.07;100.00
56992;BME280;42885;49.754;18.636;2022-11-10T07:46:13;98885.60;;;11.96;100.00
56992;BME280;42885;49.754;18.636;2022-11-10T07:49:02;98892.23;;;12.03;100.00
56992;BME280;42885;49.754;18.636;2022-11-10T07:51:52;98888.90;;;12.00;100.00
56992;BME280;42885;49.754;18.636;2022-11-10T07:54:40;98900.95;;;12.04;100.00
56992;BME280;42885;49.754;18.636;2022-11-10T07:57:29;98899.61;;;12.20;100.00
56992;BME280;42885;49.754;18.636;2022-11-10T08:00:18;98906.38;;;12.31;100.00
56992;BME280;42885;49.754;18.636;2022-11-10T08:03:16;98907.05;;;11.79;100.00
56992;BME280;42885;49.754;18.636;2022-11-10T08:06:05;98915.57;;;11.92;100.00
56992;BME280;42885;49.754;18.636;2022-11-10T08:08:54;98919.63;;;12.14;100.00
56992;BME280;42885;49.754;18.636;2022-11-10T08:11:43;98919.06;;;12.08;100.00
56992;BME280;42885;49.754;18.636;2022-11-10T08:14:32;98917.19;;;12.02;100.00
56992;BME280;42885;49.754;18.636;2022-11-10T08:17:20;98916.47;;;12.23;100.00
56992;BME280;42885;49.754;18.636;2022-11-10T08:20:09;98917.52;;;12.04;100.00
56992;BME280;42885;49.754;18.636;2022-11-10T08:23:00;98921.50;;;12.11;100.00
56992;BME280;42885;49.754;18.636;2022-11-10T08:25:49;98919.02;;;12.24;100.00
56992;BME280;42885;49.754;18.636;2022-11-10T08:28:39;98924.75;;;12.31;100.00
56992;BME280;42885;49.754;18.636;2022-11-10T08:31:28;98932.50;;;12.42;100.00
56992;BME280;42885;49.754;18.636;2022-11-10T08:34:17;98943.59;;;12.54;100.00
56992;BME280;42885;49.754;18.636;2022-11-10T08:37:06;98942.65;;;12.78;100.00
56992;BME280;42885;49.754;18.636;2022-11-10T08:39:54;98948.53;;;12.82;100.00
56992;BME280;42885;49.754;18.636;2022-11-10T08:42:43;98952.84;;;12.69;100.00
56992;BME280;42885;49.754;18.636;2022-11-10T08:45:33;98965.67;;;12.66;100.00
56992;BME280;42885;49.754;18.636;2022-11-10T08:48:22;98964.86;;;12.80;100.00
56992;BME280;42885;49.754;18.636;2022-11-10T08:51:11;98961.00;;;13.16;100.00
56992;BME280;42885;49.754;18.636;2022-11-10T08:54:00;98963.83;;;13.35;100.00
56992;BME280;42885;49.754;18.636;2022-11-10T08:56:48;98961.53;;;13.07;100.00
56992;BME280;42885;49.754;18.636;2022-11-10T08:59:37;98976.83;;;13.00;100.00
56992;BME280;42885;49.754;18.636;2022-11-10T09:02:25;98979.94;;;13.00;100.00
56992;BME280;42885;49.754;18.636;2022-11-10T09:05:14;98981.45;;;13.11;100.00
56992;BME280;42885;49.754;18.636;2022-11-10T09:08:03;98992.80;;;13.19;100.00
56992;BME280;42885;49.754;18.636;2022-11-10T09:10:52;98995.05;;;13.03;100.00
56992;BME280;42885;49.754;18.636;2022-11-10T09:13:41;98998.41;;;12.98;100.00
56992;BME280;42885;49.754;18.636;2022-11-10T09:16:29;99003.77;;;13.04;100.00
56992;BME280;42885;49.754;18.636;2022-11-10T09:19:18;99017.80;;;12.88;100.00
56992;BME280;42885;49.754;18.636;2022-11-10T09:22:06;99021.20;;;12.98;100.00
56992;BME280;42885;49.754;18.636;2022-11-10T09:24:56;99023.83;;;12.98;100.00
56992;BME280;42885;49.754;18.636;2022-11-10T09:27:44;99019.88;;;12.98;100.00
56992;BME280;42885;49.754;18.636;2022-11-10T09:30:33;99019.51;;;12.97;100.00
56992;BME280;42885;49.754;18.636;2022-11-10T09:33:22;99018.02;;;12.92;100.00
56992;BME280;42885;49.754;18.636;2022-11-10T09:36:11;99018.05;;;13.14;100.00
56992;BME280;42885;49.754;18.636;2022-11-10T09:38:59;99020.72;;;13.36;100.00
56992;BME280;42885;49.754;18.636;2022-11-10T09:41:48;99036.12;;;13.35;100.00
56992;BME280;42885;49.754;18.636;2022-11-10T09:44:44;99029.93;;;13.43;100.00
56992;BME280;42885;49.754;18.636;2022-11-10T09:47:39;99034.86;;;13.79;100.00
56992;BME280;42885;49.754;18.636;2022-11-10T09:53:28;99035.23;;;13.51;100.00
56992;BME280;42885;49.754;18.636;2022-11-10T09:56:30;99033.30;;;13.38;100.00
56992;BME280;42885;49.754;18.636;2022-11-10T09:59:26;99040.40;;;13.45;100.00
56992;BME280;42885;49.754;18.636;2022-11-10T10:02:29;99037.23;;;13.38;100.00
56992;BME280;42885;49.754;18.636;2022-11-10T10:08:23;99049.19;;;13.37;100.00
56992;BME280;42885;49.754;18.636;2022-11-10T10:11:24;99055.27;;;13.37;100.00
56992;BME280;42885;49.754;18.636;2022-11-10T10:17:41;99054.13;;;13.27;100.00
56992;BME280;42885;49.754;18.636;2022-11-10T10:20:34;99057.88;;;13.30;100.00
56992;BME280;42885;49.754;18.636;2022-11-10T10:23:40;99067.00;;;13.31;100.00
56992;BME280;42885;49.754;18.636;2022-11-10T10:26:36;99066.83;;;13.42;100.00
56992;BME280;42885;49.754;18.636;2022-11-10T10:29:22;99069.05;;;13.71;100.00
56992;BME280;42885;49.754;18.636;2022-11-10T10:32:13;99072.72;;;13.61;100.00
56992;BME280;42885;49.754;18.636;2022-11-10T10:35:02;99076.45;;;13.50;100.00
56992;BME280;42885;49.754;18.636;2022-11-10T10:37:56;99077.05;;;13.39;100.00
56992;BME280;42885;49.754;18.636;2022-11-10T10:40:46;99077.83;;;13.41;100.00
56992;BME280;42885;49.754;18.636;2022-11-10T10:43:36;99074.22;;;13.28;100.00
56992;BME280;42885;49.754;18.636;2022-11-10T10:46:25;99077.21;;;13.45;100.00
56992;BME280;42885;49.754;18.636;2022-11-10T10:49:20;99071.19;;;13.50;100.00
56992;BME280;42885;49.754;18.636;2022-11-10T10:52:14;99074.30;;;13.49;100.00
56992;BME280;42885;49.754;18.636;2022-11-10T10:55:07;99081.98;;;13.45;100.00
56992;BME280;42885;49.754;18.636;2022-11-10T10:58:02;99087.11;;;13.40;100.00
56992;BME280;42885;49.754;18.636;2022-11-10T11:01:42;99088.48;;;13.69;100.00
56992;BME280;42885;49.754;18.636;2022-11-10T11:03:50;99092.34;;;13.63;100.00
56992;BME280;42885;49.754;18.636;2022-11-10T11:06:39;99090.00;;;13.73;100.00
56992;BME280;42885;49.754;18.636;2022-11-10T11:09:41;99093.48;;;13.66;100.00
56992;BME280;42885;49.754;18.636;2022-11-10T11:12:30;99096.88;;;13.38;100.00
56992;BME280;42885;49.754;18.636;2022-11-10T11:15:25;99103.06;;;13.67;100.00
56992;BME280;42885;49.754;18.636;2022-11-10T11:18:16;99097.50;;;13.57;100.00
56992;BME280;42885;49.754;18.636;2022-11-10T11:21:18;99102.59;;;13.75;100.00
56992;BME280;42885;49.754;18.636;2022-11-10T11:24:09;99108.59;;;13.77;100.00
56992;BME280;42885;49.754;18.636;2022-11-10T11:38:59;99112.55;;;13.39;100.00
56992;BME280;42885;49.754;18.636;2022-11-10T11:51:37;99116.37;;;13.49;100.00
56992;BME280;42885;49.754;18.636;2022-11-10T11:58:03;99132.45;;;13.67;100.00
56992;BME280;42885;49.754;18.636;2022-11-10T12:04:21;99134.53;;;13.61;100.00
56992;BME280;42885;49.754;18.636;2022-11-10T12:10:35;99131.08;;;13.83;100.00
56992;BME280;42885;49.754;18.636;2022-11-10T12:13:36;99134.77;;;13.95;100.00
56992;BME280;42885;49.754;18.636;2022-11-10T12:16:30;99135.95;;;13.89;100.00
56992;BME280;42885;49.754;18.636;2022-11-10T12:19:45;99140.09;;;14.15;100.00
56992;BME280;42885;49.754;18.636;2022-11-10T12:22:47;99140.84;;;13.88;100.00
56992;BME280;42885;49.754;18.636;2022-11-10T12:25:42;99140.86;;;14.02;100.00
56992;BME280;42885;49.754;18.636;2022-11-10T12:28:38;99142.27;;;13.86;100.00
56992;BME280;42885;49.754;18.636;2022-11-10T12:31:25;99140.45;;;13.80;100.00
56992;BME280;42885;49.754;18.636;2022-11-10T12:34:47;99150.16;;;13.79;100.00
56992;BME280;42885;49.754;18.636;2022-11-10T12:37:36;99148.45;;;13.71;100.00
56992;BME280;42885;49.754;18.636;2022-11-10T12:40:35;99155.73;;;13.58;100.00
56992;BME280;42885;49.754;18.636;2022-11-10T12:43:34;99149.40;;;13.92;100.00
56992;BME280;42885;49.754;18.636;2022-11-10T12:46:23;99148.16;;;13.90;100.00
56992;BME280;42885;49.754;18.636;2022-11-10T12:49:16;99152.28;;;13.72;100.00
56992;BME280;42885;49.754;18.636;2022-11-10T12:52:14;99154.16;;;13.70;100.00
56992;BME280;42885;49.754;18.636;2022-11-10T12:55:03;99147.39;;;13.73;100.00
56992;BME280;42885;49.754;18.636;2022-11-10T12:57:52;99151.16;;;13.69;100.00
56992;BME280;42885;49.754;18.636;2022-11-10T13:00:44;99155.81;;;13.57;100.00
56992;BME280;42885;49.754;18.636;2022-11-10T13:03:36;99153.28;;;14.08;100.00
56992;BME280;42885;49.754;18.636;2022-11-10T13:06:30;99150.13;;;14.52;100.00
56992;BME280;42885;49.754;18.636;2022-11-10T13:09:32;99150.98;;;14.52;100.00
56992;BME280;42885;49.754;18.636;2022-11-10T13:12:22;99155.80;;;14.16;100.00
56992;BME280;42885;49.754;18.636;2022-11-10T13:24:41;99162.84;;;14.45;100.00
56992;BME280;42885;49.754;18.636;2022-11-10T13:30:42;99174.03;;;14.49;100.00
56992;BME280;42885;49.754;18.636;2022-11-10T13:33:34;99177.13;;;14.48;100.00
56992;BME280;42885;49.754;18.636;2022-11-10T13:36:42;99171.03;;;14.48;100.00
56992;BME280;42885;49.754;18.636;2022-11-10T13:39:32;99176.38;;;14.53;100.00
56992;BME280;42885;49.754;18.636;2022-11-10T13:42:21;99180.41;;;14.66;100.00
56992;BME280;42885;49.754;18.636;2022-11-10T13:45:35;99184.66;;;14.40;100.00
56992;BME280;42885;49.754;18.636;2022-11-10T13:57:40;99199.91;;;14.27;100.00
56992;BME280;42885;49.754;18.636;2022-11-10T14:00:32;99203.84;;;14.20;100.00
56992;BME280;42885;49.754;18.636;2022-11-10T14:06:39;99210.14;;;14.17;100.00
56992;BME280;42885;49.754;18.636;2022-11-10T14:09:32;99225.02;;;14.11;100.00
56992;BME280;42885;49.754;18.636;2022-11-10T14:12:34;99225.84;;;14.12;100.00
56992;BME280;42885;49.754;18.636;2022-11-10T14:15:50;99230.53;;;14.14;100.00
56992;BME280;42885;49.754;18.636;2022-11-10T14:18:26;99231.67;;;14.10;100.00
56992;BME280;42885;49.754;18.636;2022-11-10T14:21:23;99235.72;;;14.15;100.00
56992;BME280;42885;49.754;18.636;2022-11-10T14:24:15;99239.03;;;14.26;100.00
56992;BME280;42885;49.754;18.636;2022-11-10T14:27:12;99241.20;;;14.70;100.00
56992;BME280;42885;49.754;18.636;2022-11-10T14:33:12;99238.85;;;14.51;100.00
56992;BME280;42885;49.754;18.636;2022-11-10T14:36:03;99250.00;;;14.04;100.00
56992;BME280;42885;49.754;18.636;2022-11-10T14:38:54;99243.53;;;14.17;100.00
56992;BME280;42885;49.754;18.636;2022-11-10T14:41:46;99246.33;;;14.14;100.00
56992;BME280;42885;49.754;18.636;2022-11-10T14:44:35;99249.70;;;14.01;100.00
56992;BME280;42885;49.754;18.636;2022-11-10T14:47:27;99257.25;;;14.08;100.00
56992;BME280;42885;49.754;18.636;2022-11-10T14:50:27;99257.41;;;14.04;100.00
56992;BME280;42885;49.754;18.636;2022-11-10T14:53:22;99268.50;;;14.02;100.00
56992;BME280;42885;49.754;18.636;2022-11-10T14:56:16;99265.58;;;14.00;100.00
56992;BME280;42885;49.754;18.636;2022-11-10T14:59:06;99270.41;;;13.84;100.00
56992;BME280;42885;49.754;18.636;2022-11-10T15:01:59;99269.59;;;13.84;100.00
56992;BME280;42885;49.754;18.636;2022-11-10T15:04:50;99277.05;;;13.68;100.00
56992;BME280;42885;49.754;18.636;2022-11-10T15:07:42;99272.98;;;13.62;100.00
56992;BME280;42885;49.754;18.636;2022-11-10T15:13:32;99278.63;;;13.47;100.00
56992;BME280;42885;49.754;18.636;2022-11-10T15:16:34;99277.42;;;13.37;100.00
56992;BME280;42885;49.754;18.636;2022-11-10T15:19:29;99287.31;;;13.41;100.00
56992;BME280;42885;49.754;18.636;2022-11-10T15:22:34;99298.08;;;13.36;100.00
56992;BME280;42885;49.754;18.636;2022-11-10T15:25:30;99298.64;;;13.34;100.00
56992;BME280;42885;49.754;18.636;2022-11-10T15:31:11;99308.17;;;13.28;100.00
56992;BME280;42885;49.754;18.636;2022-11-10T15:34:03;99313.13;;;13.25;100.00
56992;BME280;42885;49.754;18.636;2022-11-10T15:46:23;99319.77;;;13.07;100.00
56992;BME280;42885;49.754;18.636;2022-11-10T15:49:02;99330.16;;;13.02;100.00
56992;BME280;42885;49.754;18.636;2022-11-10T15:51:56;99335.98;;;12.91;100.00
56992;BME280;42885;49.754;18.636;2022-11-10T15:54:46;99333.91;;;12.89;100.00
56992;BME280;42885;49.754;18.636;2022-11-10T15:57:36;99340.85;;;12.90;100.00
56992;BME280;42885;49.754;18.636;2022-11-10T16:00:25;99349.70;;;12.71;100.00
56992;BME280;42885;49.754;18.636;2022-11-10T16:03:16;99348.67;;;12.83;100.00
56992;BME280;42885;49.754;18.636;2022-11-10T16:06:07;99348.67;;;12.74;100.00
56992;BME280;42885;49.754;18.636;2022-11-10T16:08:56;99357.10;;;12.80;100.00
56992;BME280;42885;49.754;18.636;2022-11-10T16:11:45;99360.97;;;12.64;100.00
56992;BME280;42885;49.754;18.636;2022-11-10T16:14:34;99361.52;;;12.71;100.00
56992;BME280;42885;49.754;18.636;2022-11-10T16:17:24;99367.51;;;12.82;100.00